CDT,Max TemperatureF,Mean TemperatureF,Min TemperatureF,Max Dew PointF,MeanDew PointF,Min DewpointF,Max Humidity, Mean Humidity, Min Humidity, Max Sea Level PressureIn, Mean Sea Level PressureIn, Min Sea Level PressureIn, Max VisibilityMiles, Mean VisibilityMiles, Min VisibilityMiles, Max Wind SpeedMPH, Mean Wind SpeedMPH, Max Gust SpeedMPH,PrecipitationIn, CloudCover, Events, WindDirDegrees
2011-10-1,81,65,49,36,32,30,50,29,16,30.29,30.22,30.16,10,10,10,14,7,18,0.00,0,,124
2011-10-2,89,72,54,34,32,30,42,27,13,30.26,30.19,30.09,10,10,10,17,9,22,0.00,0,,135
2011-10-3,91,74,56,45,39,35,47,31,19,30.21,30.15,30.11,10,10,7,13,10,18,0.00,0,,135
2011-10-4,88,73,58,42,39,33,52,33,14,30.23,30.15,30.07,10,10,10,17,8,25,0.00,0,,140
2011-10-5,80,68,57,51,44,35,51,40,29,30.12,30.06,29.96,10,10,10,18,11,28,0.00,1,Rain,139
2011-10-6,84,76,68,61,55,45,64,49,41,29.98,29.93,29.84,10,10,10,29,21,39,0.00,4,,150
2011-10-7,91,82,72,64,62,57,73,57,32,29.99,29.92,29.87,10,10,10,30,20,36,0.00,2,,152
2011-10-8,78,70,62,64,62,59,92,79,58,30.09,29.98,29.91,10,9,2,28,20,34,0.00,5,Rain-Thunderstorm,135
2011-10-9,66,62,57,60,58,55,92,85,73,30.11,30.07,29.98,10,10,5,24,9,30,0.00,5,Rain,60
2011-10-10,70,60,51,58,54,50,95,81,58,30.15,30.08,30.00,10,9,4,8,4,,0.00,2,,109
2011-10-11,76,65,54,62,58,53,94,77,57,30.01,29.91,29.77,10,10,5,15,7,23,0.00,1,Rain,163
2011-10-12,82,72,61,61,54,42,85,61,24,29.97,29.86,29.75,10,10,10,16,9,20,0.00,2,,8
2011-10-13,78,64,50,49,41,32,79,51,19,30.10,30.03,29.93,10,10,10,10,6,,0.00,0,,331
2011-10-14,86,70,54,51,47,43,78,49,23,29.98,29.93,29.87,10,10,10,18,9,23,0.00,0,,143
2011-10-15,83,70,57,52,49,46,75,49,31,30.11,30.04,30.00,10,10,10,14,11,18,0.00,0,,115
2011-10-16,90,73,56,55,50,45,82,48,21,30.05,29.98,29.88,10,10,7,17,9,24,0.00,0,,170
2011-10-17,78,68,57,57,49,32,85,55,34,30.03,29.85,29.71,10,10,7,31,10,39,0.00,1,,6
2011-10-18,68,58,48,41,32,25,73,41,20,30.22,30.15,30.05,10,10,7,29,20,37,0.00,0,,350
2011-10-19,67,54,40,32,29,25,72,42,20,30.20,30.15,30.08,10,10,10,21,9,31,0.00,0,,342
2011-10-20,72,58,43,37,33,31,68,43,23,30.11,30.06,29.98,10,10,10,20,8,26,0.00,0,,132
2011-10-21,78,60,42,46,38,34,76,46,20,30.19,30.11,30.06,10,10,10,12,7,,0.00,0,,91
2011-10-22,82,68,55,57,52,46,82,61,38,30.09,30.01,29.92,10,10,10,13,8,17,0.00,1,,129
2011-10-23,83,68,52,56,49,38,91,59,20,30.12,30.07,30.01,10,10,5,12,6,16,0.00,0,,1
2011-10-24,86,70,54,53,46,34,84,54,16,30.21,30.14,30.05,10,10,10,21,7,29,0.00,0,,154
2011-10-25,91,74,56,55,51,46,82,53,21,30.05,29.95,29.80,10,10,10,20,12,24,0.00,0,,164
2011-10-26,73,64,55,54,44,38,68,50,38,30.03,29.94,29.82,10,10,4,26,14,33,0.00,0,,29
2011-10-27,52,48,44,42,41,35,87,82,53,30.21,30.15,30.03,10,8,1,32,18,39,0.00,7,Rain-Thunderstorm,4
2011-10-28,58,48,38,43,36,31,91,67,36,30.36,30.29,30.24,10,10,2,12,6,,0.00,0,,344
2011-10-29,63,50,38,42,38,34,85,64,38,30.31,30.18,30.00,10,10,10,18,5,24,0.00,0,,187
2011-10-30,67,54,42,41,39,37,81,58,34,30.21,30.12,30.01,10,10,10,18,9,24,0.00,0,,67
2011-10-31,72,56,40,48,42,37,89,66,37,30.23,30.17,30.04,10,10,10,13,3,17,0.00,0,,183